Terminal Aerodrome Forecast
Issued by NWS Wilmington, OH

Current Version | Previous Version | Text Only | Print | Product List | Glossary Off
Versions: 1 2 3 4 5 6 7 8 9 10 11 12 13 14 15 16 17 18 19 20 21 22 23 24 25

000
FTUS41 KILN 032300
TAFDAY
TAF
KDAY 032329Z 0400/0424 24012KT 3/4SM -RA BR OVC003
     FM040300 27010KT 2SM -RA BR OVC004
      TEMPO 0411/0413 2SM -SN BR OVC008
     FM041300 33010KT 4SM BR OVC012
     FM042100 33012KT 1 1/2SM -SN BR OVC007=

USA.gov is the U.S. government's official web portal to all federal, state and local government web resources and services.